M I D A S
Marine Information and Data Acquisition System
Tripno 1622 of the Zeeleeuw from 2008-12-18 08:26:27 to 2008-12-18 15:57:38
Back to CruiseResearch ActivitiesStationsMapUnderway DataData graphs

EquipmentUnitsComments
TimeDGPSUTC
LatitudeDGPSDM.mWGS84
LongitudeDGPSDM.mWGS84
SpeedMeteo Stationm/sRelative wind speed
DirectionMeteo StationdegRelative wind direction
TemperatureMeteo Stationdeg CelciusAir temperature
PressureMeteo StationPaAtmospheric pressure
HumidityMeteo Station%Relative humidity
Missing or incorrect values are displayed as -999
Metereological data collected by the RV Zeeleeuw from 2008-12-18 08:28:12 to 2008-12-18 16:00:09
Time Latitude Longitude Speed Direction Temperature Pressure Humidity
2008-12-18 08:29 51°13.676 2°55.889 -999 -999 -999 -999 -999
2008-12-18 08:30 51°13.695 2°55.783 -999 -999 -999 -999 -999
2008-12-18 08:31 51°13.701 2°55.734 -999 -999 -999 -999 -999
2008-12-18 08:32 51°13.702 2°55.721 -999 -999 -999 -999 -999
2008-12-18 08:33 51°13.788 2°55.663 -999 -999 -999 -999 -999
2008-12-18 08:34 51°13.908 2°55.581 -999 -999 -999 -999 -999
2008-12-18 08:35 51°14.044 2°55.485 -999 -999 -999 -999 -999
2008-12-18 08:36 51°14.176 2°55.372 -999 -999 -999 -999 -999
2008-12-18 08:37 51°14.292 2°55.204 -999 -999 -999 -999 -999
2008-12-18 08:38 51°14.401 2°55.013 -999 -999 -999 -999 -999
2008-12-18 08:39 51°14.502 2°54.762 -999 -999 -999 -999 -999
2008-12-18 08:40 51°14.489 2°54.46 -999 -999 -999 -999 -999
2008-12-18 08:41 51°14.398 2°54.171 -999 -999 -999 -999 -999
2008-12-18 08:42 51°14.296 2°53.889 -999 -999 -999 -999 -999
2008-12-18 08:43 51°14.202 2°53.6 -999 -999 -999 -999 -999
2008-12-18 08:44 51°14.106 2°53.312 -999 -999 -999 -999 -999
2008-12-18 08:45 51°14.009 2°53.028 -999 -999 -999 -999 -999
2008-12-18 08:46 51°13.912 2°52.739 -999 -999 -999 -999 -999
2008-12-18 08:47 51°13.812 2°52.442 -999 -999 -999 -999 -999
2008-12-18 08:48 51°13.714 2°52.142 -999 -999 -999 -999 -999
2008-12-18 08:49 51°13.619 2°51.856 -999 -999 -999 -999 -999
2008-12-18 08:50 51°13.539 2°51.63 -999 -999 -999 -999 -999
2008-12-18 08:51 51°13.486 2°51.485 -999 -999 -999 -999 -999
2008-12-18 08:52 51°13.465 2°51.446 -999 -999 -999 -999 -999
2008-12-18 08:53 51°13.459 2°51.434 -999 -999 -999 -999 -999
2008-12-18 08:54 51°13.457 2°51.426 -999 -999 -999 -999 -999
2008-12-18 08:55 51°13.456 2°51.419 -999 -999 -999 -999 -999
2008-12-18 08:56 51°13.457 2°51.412 -999 -999 -999 -999 -999
2008-12-18 08:57 51°13.457 2°51.405 -999 -999 -999 -999 -999
2008-12-18 08:58 51°13.458 2°51.399 -999 -999 -999 -999 -999
2008-12-18 08:59 51°13.459 2°51.393 -999 -999 -999 -999 -999
2008-12-18 09:00 51°13.466 2°51.458 -999 -999 -999 -999 -999
2008-12-18 09:01 51°13.506 2°51.551 -999 -999 -999 -999 -999
2008-12-18 09:02 51°13.524 2°51.556 -999 -999 -999 -999 -999
2008-12-18 09:03 51°13.533 2°51.543 -999 -999 -999 -999 -999
2008-12-18 09:04 51°13.541 2°51.527 -999 -999 -999 -999 -999
2008-12-18 09:05 51°13.548 2°51.51 -999 -999 -999 -999 -999
2008-12-18 09:06 51°13.554 2°51.492 -999 -999 -999 -999 -999
2008-12-18 09:07 51°13.604 2°51.487 -999 -999 -999 -999 -999
2008-12-18 09:08 51°13.674 2°51.645 -999 -999 -999 -999 -999
2008-12-18 09:09 51°13.764 2°51.909 -999 -999 -999 -999 -999
2008-12-18 09:10 51°13.854 2°52.176 -999 -999 -999 -999 -999
2008-12-18 09:11 51°13.938 2°52.447 -999 -999 -999 -999 -999
2008-12-18 09:12 51°14.027 2°52.713 -999 -999 -999 -999 -999
2008-12-18 09:13 51°14.111 2°52.984 -999 -999 -999 -999 -999
2008-12-18 09:14 51°14.198 2°53.253 -999 -999 -999 -999 -999
2008-12-18 09:15 51°14.285 2°53.519 -999 -999 -999 -999 -999
2008-12-18 09:16 51°14.406 2°53.744 -999 -999 -999 -999 -999
2008-12-18 09:17 51°14.589 2°53.803 -999 -999 -999 -999 -999
2008-12-18 09:18 51°14.774 2°53.699 -999 -999 -999 -999 -999
2008-12-18 09:19 51°14.893 2°53.439 -999 -999 -999 -999 -999
2008-12-18 09:20 51°14.908 2°53.109 -999 -999 -999 -999 -999
2008-12-18 09:21 51°14.871 2°52.781 -999 -999 -999 -999 -999
2008-12-18 09:22 51°14.82 2°52.458 -999 -999 -999 -999 -999
2008-12-18 09:23 51°14.761 2°52.137 -999 -999 -999 -999 -999
2008-12-18 09:24 51°14.723 2°51.805 -999 -999 -999 -999 -999
2008-12-18 09:25 51°14.698 2°51.466 -999 -999 -999 -999 -999
2008-12-18 09:26 51°14.668 2°51.127 -999 -999 -999 -999 -999
2008-12-18 09:27 51°14.631 2°50.789 -999 -999 -999 -999 -999
2008-12-18 09:28 51°14.593 2°50.451 -999 -999 -999 -999 -999
2008-12-18 09:29 51°14.555 2°50.112 -999 -999 -999 -999 -999
2008-12-18 09:30 51°14.515 2°49.774 -999 -999 -999 -999 -999
2008-12-18 09:31 51°14.472 2°49.436 -999 -999 -999 -999 -999
2008-12-18 09:32 51°14.435 2°49.097 -999 -999 -999 -999 -999
2008-12-18 09:33 51°14.399 2°48.756 -999 -999 -999 -999 -999
2008-12-18 09:34 51°14.362 2°48.418 -999 -999 -999 -999 -999
2008-12-18 09:35 51°14.325 2°48.079 -999 -999 -999 -999 -999
2008-12-18 09:36 51°14.288 2°47.74 -999 -999 -999 -999 -999
2008-12-18 09:37 51°14.252 2°47.403 -999 -999 -999 -999 -999
2008-12-18 09:38 51°14.216 2°47.069 -999 -999 -999 -999 -999
2008-12-18 09:39 51°14.174 2°46.74 -999 -999 -999 -999 -999
2008-12-18 09:40 51°14.133 2°46.41 -999 -999 -999 -999 -999
2008-12-18 09:41 51°14.063 2°46.092 -999 -999 -999 -999 -999
2008-12-18 09:42 51°13.935 2°45.832 -999 -999 -999 -999 -999
2008-12-18 09:43 51°13.776 2°45.622 -999 -999 -999 -999 -999
2008-12-18 09:44 51°13.615 2°45.423 -999 -999 -999 -999 -999
2008-12-18 09:45 51°13.455 2°45.215 -999 -999 -999 -999 -999
2008-12-18 09:46 51°13.299 2°44.985 -999 -999 -999 -999 -999
2008-12-18 09:47 51°13.143 2°44.754 -999 -999 -999 -999 -999
2008-12-18 09:48 51°12.985 2°44.525 -999 -999 -999 -999 -999
2008-12-18 09:49 51°12.827 2°44.294 -999 -999 -999 -999 -999
2008-12-18 09:50 51°12.668 2°44.064 -999 -999 -999 -999 -999
2008-12-18 09:51 51°12.508 2°43.839 -999 -999 -999 -999 -999
2008-12-18 09:52 51°12.345 2°43.624 -999 -999 -999 -999 -999
2008-12-18 09:53 51°12.188 2°43.399 -999 -999 -999 -999 -999
2008-12-18 09:54 51°12.034 2°43.17 -999 -999 -999 -999 -999
2008-12-18 09:55 51°11.865 2°42.979 -999 -999 -999 -999 -999
2008-12-18 09:56 51°11.68 2°42.842 -999 -999 -999 -999 -999
2008-12-18 09:57 51°11.487 2°42.719 -999 -999 -999 -999 -999
2008-12-18 09:58 51°11.292 2°42.605 -999 -999 -999 -999 -999
2008-12-18 09:59 51°11.092 2°42.519 -999 -999 -999 -999 -999
2008-12-18 10:00 51°10.889 2°42.449 -999 -999 -999 -999 -999
2008-12-18 10:01 51°10.686 2°42.411 -999 -999 -999 -999 -999
2008-12-18 10:02 51°10.486 2°42.393 -999 -999 -999 -999 -999
2008-12-18 10:03 51°10.316 2°42.445 -999 -999 -999 -999 -999
2008-12-18 10:04 51°10.237 2°42.559 -999 -999 -999 -999 -999
2008-12-18 10:05 51°10.168 2°42.645 -999 -999 -999 -999 -999
2008-12-18 10:06 51°10.124 2°42.691 -999 -999 -999 -999 -999
2008-12-18 10:07 51°10.107 2°42.686 -999 -999 -999 -999 -999
2008-12-18 10:08 51°10.1 2°42.674 -999 -999 -999 -999 -999
2008-12-18 10:09 51°10.094 2°42.662 -999 -999 -999 -999 -999
2008-12-18 10:10 51°10.092 2°42.651 -999 -999 -999 -999 -999
2008-12-18 10:11 51°10.091 2°42.639 -999 -999 -999 -999 -999
2008-12-18 10:12 51°10.09 2°42.628 -999 -999 -999 -999 -999
2008-12-18 10:13 51°10.084 2°42.621 -999 -999 -999 -999 -999
2008-12-18 10:14 51°10.037 2°42.592 -999 -999 -999 -999 -999
2008-12-18 10:15 51°10.021 2°42.471 -999 -999 -999 -999 -999
2008-12-18 10:16 51°10.051 2°42.211 -999 -999 -999 -999 -999
2008-12-18 10:17 51°10.098 2°41.902 -999 -999 -999 -999 -999
2008-12-18 10:18 51°10.112 2°41.574 -999 -999 -999 -999 -999
2008-12-18 10:19 51°10.094 2°41.24 -999 -999 -999 -999 -999
2008-12-18 10:20 51°10.048 2°40.909 -999 -999 -999 -999 -999
2008-12-18 10:21 51°10.002 2°40.578 -999 -999 -999 -999 -999
2008-12-18 10:22 51°9.957 2°40.246 -999 -999 -999 -999 -999
2008-12-18 10:23 51°9.949 2°39.904 -999 -999 -999 -999 -999
2008-12-18 10:24 51°9.936 2°39.563 -999 -999 -999 -999 -999
2008-12-18 10:25 51°9.914 2°39.22 -999 -999 -999 -999 -999
2008-12-18 10:26 51°9.89 2°38.876 -999 -999 -999 -999 -999
2008-12-18 10:27 51°9.866 2°38.53 -999 -999 -999 -999 -999
2008-12-18 10:28 51°9.842 2°38.181 -999 -999 -999 -999 -999
2008-12-18 10:29 51°9.818 2°37.83 -999 -999 -999 -999 -999
2008-12-18 10:30 51°9.794 2°37.485 -999 -999 -999 -999 -999
2008-12-18 10:31 51°9.756 2°37.301 -999 -999 -999 -999 -999
2008-12-18 10:32 51°9.716 2°37.217 -999 -999 -999 -999 -999
2008-12-18 10:33 51°9.683 2°37.175 -999 -999 -999 -999 -999
2008-12-18 10:34 51°9.66 2°37.15 -999 -999 -999 -999 -999
2008-12-18 10:35 51°9.624 2°37.135 -999 -999 -999 -999 -999
2008-12-18 10:36 51°9.575 2°37.12 -999 -999 -999 -999 -999
2008-12-18 10:37 51°9.523 2°37.076 -999 -999 -999 -999 -999
2008-12-18 10:38 51°9.479 2°37.002 -999 -999 -999 -999 -999
2008-12-18 10:39 51°9.449 2°36.924 -999 -999 -999 -999 -999
2008-12-18 10:40 51°9.431 2°36.855 -999 -999 -999 -999 -999
2008-12-18 10:41 51°9.419 2°36.795 -999 -999 -999 -999 -999
2008-12-18 10:42 51°9.409 2°36.738 -999 -999 -999 -999 -999
2008-12-18 10:43 51°9.398 2°36.685 -999 -999 -999 -999 -999
2008-12-18 10:44 51°9.388 2°36.631 -999 -999 -999 -999 -999
2008-12-18 10:45 51°9.376 2°36.561 -999 -999 -999 -999 -999
2008-12-18 10:46 51°9.365 2°36.476 -999 -999 -999 -999 -999
2008-12-18 10:47 51°9.355 2°36.392 -999 -999 -999 -999 -999
2008-12-18 10:48 51°9.347 2°36.313 -999 -999 -999 -999 -999
2008-12-18 10:49 51°9.342 2°36.235 -999 -999 -999 -999 -999
2008-12-18 10:50 51°9.338 2°36.16 -999 -999 -999 -999 -999
2008-12-18 10:51 51°9.332 2°36.085 -999 -999 -999 -999 -999
2008-12-18 10:52 51°9.327 2°36.012 -999 -999 -999 -999 -999
2008-12-18 10:53 51°9.319 2°35.937 -999 -999 -999 -999 -999
2008-12-18 10:54 51°9.306 2°35.857 -999 -999 -999 -999 -999
2008-12-18 10:55 51°9.293 2°35.774 -999 -999 -999 -999 -999
2008-12-18 10:56 51°9.283 2°35.688 -999 -999 -999 -999 -999
2008-12-18 10:57 51°9.273 2°35.601 -999 -999 -999 -999 -999
2008-12-18 10:58 51°9.26 2°35.515 -999 -999 -999 -999 -999
2008-12-18 10:59 51°9.247 2°35.429 -999 -999 -999 -999 -999
2008-12-18 11:00 51°9.233 2°35.343 -999 -999 -999 -999 -999
2008-12-18 11:01 51°9.221 2°35.256 -999 -999 -999 -999 -999
2008-12-18 11:02 51°9.209 2°35.169 -999 -999 -999 -999 -999
2008-12-18 11:03 51°9.197 2°35.082 -999 -999 -999 -999 -999
2008-12-18 11:04 51°9.185 2°34.995 -999 -999 -999 -999 -999
2008-12-18 11:05 51°9.179 2°34.91 -999 -999 -999 -999 -999
2008-12-18 11:06 51°9.19 2°34.836 -999 -999 -999 -999 -999
2008-12-18 11:07 51°9.2 2°34.782 -999 -999 -999 -999 -999
2008-12-18 11:08 51°9.206 2°34.736 -999 -999 -999 -999 -999
2008-12-18 11:09 51°9.215 2°34.679 -999 -999 -999 -999 -999
2008-12-18 11:10 51°9.261 2°34.623 -999 -999 -999 -999 -999
2008-12-18 11:11 51°9.328 2°34.683 -999 -999 -999 -999 -999
2008-12-18 11:12 51°9.438 2°34.837 -999 -999 -999 -999 -999
2008-12-18 11:13 51°9.568 2°35.029 -999 -999 -999 -999 -999
2008-12-18 11:14 51°9.704 2°35.227 -999 -999 -999 -999 -999
2008-12-18 11:15 51°9.851 2°35.406 -999 -999 -999 -999 -999
2008-12-18 11:16 51°10.01 2°35.56 -999 -999 -999 -999 -999
2008-12-18 11:17 51°10.171 2°35.708 -999 -999 -999 -999 -999
2008-12-18 11:18 51°10.329 2°35.863 -999 -999 -999 -999 -999
2008-12-18 11:19 51°10.484 2°36.022 -999 -999 -999 -999 -999
2008-12-18 11:20 51°10.637 2°36.184 -999 -999 -999 -999 -999
2008-12-18 11:21 51°10.789 2°36.346 -999 -999 -999 -999 -999
2008-12-18 11:22 51°10.939 2°36.51 -999 -999 -999 -999 -999
2008-12-18 11:23 51°11.091 2°36.674 -999 -999 -999 -999 -999
2008-12-18 11:24 51°11.247 2°36.829 -999 -999 -999 -999 -999
2008-12-18 11:25 51°11.404 2°36.981 -999 -999 -999 -999 -999
2008-12-18 11:26 51°11.569 2°37.11 -999 -999 -999 -999 -999
2008-12-18 11:27 51°11.733 2°37.241 -999 -999 -999 -999 -999
2008-12-18 11:28 51°11.89 2°37.389 -999 -999 -999 -999 -999
2008-12-18 11:29 51°12.046 2°37.546 -999 -999 -999 -999 -999
2008-12-18 11:30 51°12.206 2°37.69 -999 -999 -999 -999 -999
2008-12-18 11:31 51°12.363 2°37.839 -999 -999 -999 -999 -999
2008-12-18 11:32 51°12.523 2°37.982 -999 -999 -999 -999 -999
2008-12-18 11:33 51°12.682 2°38.127 -999 -999 -999 -999 -999
2008-12-18 11:34 51°12.839 2°38.28 -999 -999 -999 -999 -999
2008-12-18 11:35 51°12.996 2°38.434 -999 -999 -999 -999 -999
2008-12-18 11:36 51°13.156 2°38.58 -999 -999 -999 -999 -999
2008-12-18 11:37 51°13.318 2°38.72 -999 -999 -999 -999 -999
2008-12-18 11:38 51°13.482 2°38.853 -999 -999 -999 -999 -999
2008-12-18 11:39 51°13.647 2°38.989 -999 -999 -999 -999 -999
2008-12-18 11:40 51°13.813 2°39.123 -999 -999 -999 -999 -999
2008-12-18 11:41 51°13.974 2°39.262 -999 -999 -999 -999 -999
2008-12-18 11:42 51°14.136 2°39.409 -999 -999 -999 -999 -999
2008-12-18 11:43 51°14.303 2°39.537 -999 -999 -999 -999 -999
2008-12-18 11:44 51°14.476 2°39.646 -999 -999 -999 -999 -999
2008-12-18 11:45 51°14.65 2°39.76 -999 -999 -999 -999 -999
2008-12-18 11:46 51°14.821 2°39.881 -999 -999 -999 -999 -999
2008-12-18 11:47 51°14.986 2°40.018 -999 -999 -999 -999 -999
2008-12-18 11:48 51°15.147 2°40.164 -999 -999 -999 -999 -999
2008-12-18 11:49 51°15.31 2°40.304 -999 -999 -999 -999 -999
2008-12-18 11:50 51°15.47 2°40.452 -999 -999 -999 -999 -999
2008-12-18 11:51 51°15.634 2°40.586 -999 -999 -999 -999 -999
2008-12-18 11:52 51°15.795 2°40.731 -999 -999 -999 -999 -999
2008-12-18 11:53 51°15.959 2°40.872 -999 -999 -999 -999 -999
2008-12-18 11:54 51°16.125 2°41.016 -999 -999 -999 -999 -999
2008-12-18 11:55 51°16.287 2°41.15 -999 -999 -999 -999 -999
2008-12-18 11:56 51°16.454 2°41.291 -999 -999 -999 -999 -999
2008-12-18 11:57 51°16.615 2°41.424 -999 -999 -999 -999 -999
2008-12-18 11:58 51°16.775 2°41.57 -999 -999 -999 -999 -999
2008-12-18 11:59 51°16.934 2°41.716 -999 -999 -999 -999 -999
2008-12-18 12:00 51°17.094 2°41.865 -999 -999 -999 -999 -999
2008-12-18 12:01 51°17.254 2°42.006 -999 -999 -999 -999 -999
2008-12-18 12:02 51°17.405 2°42.156 -999 -999 -999 -999 -999
2008-12-18 12:03 51°17.55 2°42.336 -999 -999 -999 -999 -999
2008-12-18 12:04 51°17.632 2°42.583 -999 -999 -999 -999 -999
2008-12-18 12:05 51°17.699 2°42.855 -999 -999 -999 -999 -999
2008-12-18 12:06 51°17.795 2°43.106 -999 -999 -999 -999 -999
2008-12-18 12:07 51°17.892 2°43.354 -999 -999 -999 -999 -999
2008-12-18 12:08 51°17.986 2°43.604 -999 -999 -999 -999 -999
2008-12-18 12:09 51°18.081 2°43.85 -999 -999 -999 -999 -999
2008-12-18 12:10 51°18.176 2°44.104 -999 -999 -999 -999 -999
2008-12-18 12:11 51°18.269 2°44.346 -999 -999 -999 -999 -999
2008-12-18 12:12 51°18.372 2°44.587 -999 -999 -999 -999 -999
2008-12-18 12:13 51°18.471 2°44.819 -999 -999 -999 -999 -999
2008-12-18 12:14 51°18.565 2°45.06 -999 -999 -999 -999 -999
2008-12-18 12:15 51°18.656 2°45.307 -999 -999 -999 -999 -999
2008-12-18 12:16 51°18.751 2°45.547 -999 -999 -999 -999 -999
2008-12-18 12:17 51°18.847 2°45.787 -999 -999 -999 -999 -999
2008-12-18 12:18 51°18.942 2°46.027 -999 -999 -999 -999 -999
2008-12-18 12:19 51°19.038 2°46.272 -999 -999 -999 -999 -999
2008-12-18 12:20 51°19.131 2°46.511 -999 -999 -999 -999 -999
2008-12-18 12:21 51°19.22 2°46.762 -999 -999 -999 -999 -999
2008-12-18 12:22 51°19.306 2°47.009 -999 -999 -999 -999 -999
2008-12-18 12:23 51°19.395 2°47.26 -999 -999 -999 -999 -999
2008-12-18 12:24 51°19.482 2°47.51 -999 -999 -999 -999 -999
2008-12-18 12:25 51°19.567 2°47.764 -999 -999 -999 -999 -999
2008-12-18 12:26 51°19.655 2°48.015 -999 -999 -999 -999 -999
2008-12-18 12:27 51°19.746 2°48.267 -999 -999 -999 -999 -999
2008-12-18 12:28 51°19.838 2°48.524 -999 -999 -999 -999 -999
2008-12-18 12:29 51°19.927 2°48.769 -999 -999 -999 -999 -999
2008-12-18 12:30 51°20.018 2°49.026 -999 -999 -999 -999 -999
2008-12-18 12:31 51°20.103 2°49.278 -999 -999 -999 -999 -999
2008-12-18 12:32 51°20.192 2°49.53 -999 -999 -999 -999 -999
2008-12-18 12:33 51°20.28 2°49.785 -999 -999 -999 -999 -999
2008-12-18 12:34 51°20.369 2°50.036 -999 -999 -999 -999 -999
2008-12-18 12:35 51°20.461 2°50.291 -999 -999 -999 -999 -999
2008-12-18 12:36 51°20.563 2°50.523 -999 -999 -999 -999 -999
2008-12-18 12:37 51°20.671 2°50.763 -999 -999 -999 -999 -999
2008-12-18 12:38 51°20.77 2°51 -999 -999 -999 -999 -999
2008-12-18 12:39 51°20.867 2°51.252 -999 -999 -999 -999 -999
2008-12-18 12:40 51°20.966 2°51.488 -999 -999 -999 -999 -999
2008-12-18 12:41 51°21.064 2°51.734 -999 -999 -999 -999 -999
2008-12-18 12:42 51°21.16 2°51.982 -999 -999 -999 -999 -999
2008-12-18 12:43 51°21.261 2°52.225 -999 -999 -999 -999 -999
2008-12-18 12:44 51°21.362 2°52.473 -999 -999 -999 -999 -999
2008-12-18 12:45 51°21.46 2°52.716 -999 -999 -999 -999 -999
2008-12-18 12:46 51°21.561 2°52.964 -999 -999 -999 -999 -999
2008-12-18 12:47 51°21.661 2°53.203 -999 -999 -999 -999 -999
2008-12-18 12:48 51°21.761 2°53.453 -999 -999 -999 -999 -999
2008-12-18 12:49 51°21.86 2°53.7 -999 -999 -999 -999 -999
2008-12-18 12:50 51°21.924 2°53.969 -999 -999 -999 -999 -999
2008-12-18 12:51 51°21.95 2°54.262 -999 -999 -999 -999 -999
2008-12-18 12:52 51°21.975 2°54.558 -999 -999 -999 -999 -999
2008-12-18 12:53 51°22 2°54.86 -999 -999 -999 -999 -999
2008-12-18 12:54 51°22.041 2°55.143 -999 -999 -999 -999 -999
2008-12-18 12:55 51°22.088 2°55.433 -999 -999 -999 -999 -999
2008-12-18 12:56 51°22.127 2°55.715 -999 -999 -999 -999 -999
2008-12-18 12:57 51°22.175 2°56.004 -999 -999 -999 -999 -999
2008-12-18 12:58 51°22.228 2°56.288 -999 -999 -999 -999 -999
2008-12-18 12:59 51°22.285 2°56.566 -999 -999 -999 -999 -999
2008-12-18 13:00 51°22.346 2°56.852 -999 -999 -999 -999 -999
2008-12-18 13:01 51°22.405 2°57.124 -999 -999 -999 -999 -999
2008-12-18 13:02 51°22.462 2°57.41 -999 -999 -999 -999 -999
2008-12-18 13:03 51°22.519 2°57.685 -999 -999 -999 -999 -999
2008-12-18 13:04 51°22.577 2°57.97 -999 -999 -999 -999 -999
2008-12-18 13:05 51°22.637 2°58.243 -999 -999 -999 -999 -999
2008-12-18 13:06 51°22.724 2°58.51 -999 -999 -999 -999 -999
2008-12-18 13:07 51°22.823 2°58.761 -999 -999 -999 -999 -999
2008-12-18 13:08 51°22.926 2°59.003 -999 -999 -999 -999 -999
2008-12-18 13:09 51°23.03 2°59.253 -999 -999 -999 -999 -999
2008-12-18 13:10 51°23.128 2°59.501 -999 -999 -999 -999 -999
2008-12-18 13:11 51°23.23 2°59.757 -999 -999 -999 -999 -999
2008-12-18 13:12 51°23.332 3°0.003 -999 -999 -999 -999 -999
2008-12-18 13:13 51°23.433 3°0.262 -999 -999 -999 -999 -999
2008-12-18 13:14 51°23.535 3°0.517 -999 -999 -999 -999 -999
2008-12-18 13:15 51°23.629 3°0.774 -999 -999 -999 -999 -999
2008-12-18 13:16 51°23.732 3°1.037 -999 -999 -999 -999 -999
2008-12-18 13:17 51°23.833 3°1.292 -999 -999 -999 -999 -999
2008-12-18 13:18 51°23.935 3°1.561 -999 -999 -999 -999 -999
2008-12-18 13:19 51°24.035 3°1.821 -999 -999 -999 -999 -999
2008-12-18 13:20 51°24.143 3°2.089 -999 -999 -999 -999 -999
2008-12-18 13:21 51°24.242 3°2.357 -999 -999 -999 -999 -999
2008-12-18 13:22 51°24.318 3°2.653 -999 -999 -999 -999 -999
2008-12-18 13:23 51°24.321 3°2.965 -999 -999 -999 -999 -999
2008-12-18 13:24 51°24.23 3°3.261 -999 -999 -999 -999 -999
2008-12-18 13:25 51°24.166 3°3.58 -999 -999 -999 -999 -999
2008-12-18 13:26 51°24.118 3°3.895 -999 -999 -999 -999 -999
2008-12-18 13:27 51°24.058 3°4.219 -999 -999 -999 -999 -999
2008-12-18 13:28 51°24.006 3°4.54 -999 -999 -999 -999 -999
2008-12-18 13:29 51°23.956 3°4.863 -999 -999 -999 -999 -999
2008-12-18 13:30 51°23.91 3°5.189 -999 -999 -999 -999 -999
2008-12-18 13:31 51°23.869 3°5.518 -999 -999 -999 -999 -999
2008-12-18 13:32 51°23.83 3°5.848 -999 -999 -999 -999 -999
2008-12-18 13:33 51°23.799 3°6.181 -999 -999 -999 -999 -999
2008-12-18 13:34 51°23.781 3°6.517 -999 -999 -999 -999 -999
2008-12-18 13:35 51°23.77 3°6.848 -999 -999 -999 -999 -999
2008-12-18 13:36 51°23.768 3°7.189 -999 -999 -999 -999 -999
2008-12-18 13:37 51°23.765 3°7.52 -999 -999 -999 -999 -999
2008-12-18 13:38 51°23.74 3°7.843 -999 -999 -999 -999 -999
2008-12-18 13:39 51°23.654 3°8.14 -999 -999 -999 -999 -999
2008-12-18 13:40 51°23.562 3°8.434 -999 -999 -999 -999 -999
2008-12-18 13:41 51°23.464 3°8.724 -999 -999 -999 -999 -999
2008-12-18 13:42 51°23.376 3°9.014 -999 -999 -999 -999 -999
2008-12-18 13:43 51°23.281 3°9.312 -999 -999 -999 -999 -999
2008-12-18 13:44 51°23.187 3°9.601 -999 -999 -999 -999 -999
2008-12-18 13:45 51°23.087 3°9.889 -999 -999 -999 -999 -999
2008-12-18 13:46 51°22.989 3°10.17 -999 -999 -999 -999 -999
2008-12-18 13:47 51°22.881 3°10.452 -999 -999 -999 -999 -999
2008-12-18 13:48 51°22.77 3°10.731 -999 -999 -999 -999 -999
2008-12-18 13:49 51°22.664 3°11.016 -999 -999 -999 -999 -999
2008-12-18 13:50 51°22.583 3°11.206 -999 -999 -999 -999 -999
2008-12-18 13:51 51°22.534 3°11.286 -999 -999 -999 -999 -999
2008-12-18 13:52 51°22.508 3°11.328 -999 -999 -999 -999 -999
2008-12-18 13:53 51°22.506 3°11.352 -999 -999 -999 -999 -999
2008-12-18 13:54 51°22.506 3°11.378 -999 -999 -999 -999 -999
2008-12-18 13:55 51°22.509 3°11.404 -999 -999 -999 -999 -999
2008-12-18 13:56 51°22.512 3°11.432 -999 -999 -999 -999 -999
2008-12-18 13:57 51°22.515 3°11.459 -999 -999 -999 -999 -999
2008-12-18 13:58 51°22.519 3°11.487 -999 -999 -999 -999 -999
2008-12-18 13:59 51°22.519 3°11.529 -999 -999 -999 -999 -999
2008-12-18 14:00 51°22.543 3°11.624 -999 -999 -999 -999 -999
2008-12-18 14:01 51°22.605 3°11.611 -999 -999 -999 -999 -999
2008-12-18 14:02 51°22.597 3°11.515 -999 -999 -999 -999 -999
2008-12-18 14:03 51°22.533 3°11.292 -999 -999 -999 -999 -999
2008-12-18 14:04 51°22.453 3°11.019 -999 -999 -999 -999 -999
2008-12-18 14:05 51°22.371 3°10.748 -999 -999 -999 -999 -999
2008-12-18 14:06 51°22.281 3°10.477 -999 -999 -999 -999 -999
2008-12-18 14:07 51°22.181 3°10.217 -999 -999 -999 -999 -999
2008-12-18 14:08 51°22.086 3°9.955 -999 -999 -999 -999 -999
2008-12-18 14:09 51°21.997 3°9.697 -999 -999 -999 -999 -999
2008-12-18 14:10 51°21.943 3°9.582 -999 -999 -999 -999 -999
2008-12-18 14:11 51°21.904 3°9.563 -999 -999 -999 -999 -999
2008-12-18 14:12 51°21.858 3°9.543 -999 -999 -999 -999 -999
2008-12-18 14:13 51°21.831 3°9.496 -999 -999 -999 -999 -999
2008-12-18 14:14 51°21.822 3°9.431 -999 -999 -999 -999 -999
2008-12-18 14:15 51°21.808 3°9.359 -999 -999 -999 -999 -999
2008-12-18 14:16 51°21.791 3°9.307 -999 -999 -999 -999 -999
2008-12-18 14:17 51°21.774 3°9.256 -999 -999 -999 -999 -999
2008-12-18 14:18 51°21.757 3°9.2 -999 -999 -999 -999 -999
2008-12-18 14:19 51°21.742 3°9.143 -999 -999 -999 -999 -999
2008-12-18 14:20 51°21.726 3°9.089 -999 -999 -999 -999 -999
2008-12-18 14:21 51°21.711 3°9.034 -999 -999 -999 -999 -999
2008-12-18 14:22 51°21.695 3°8.981 -999 -999 -999 -999 -999
2008-12-18 14:23 51°21.678 3°8.931 -999 -999 -999 -999 -999
2008-12-18 14:24 51°21.661 3°8.881 -999 -999 -999 -999 -999
2008-12-18 14:25 51°21.646 3°8.831 -999 -999 -999 -999 -999
2008-12-18 14:26 51°21.63 3°8.781 -999 -999 -999 -999 -999
2008-12-18 14:27 51°21.614 3°8.732 -999 -999 -999 -999 -999
2008-12-18 14:28 51°21.598 3°8.68 -999 -999 -999 -999 -999
2008-12-18 14:29 51°21.581 3°8.63 -999 -999 -999 -999 -999
2008-12-18 14:30 51°21.566 3°8.578 -999 -999 -999 -999 -999
2008-12-18 14:31 51°21.551 3°8.526 -999 -999 -999 -999 -999
2008-12-18 14:32 51°21.534 3°8.476 -999 -999 -999 -999 -999
2008-12-18 14:33 51°21.516 3°8.421 -999 -999 -999 -999 -999
2008-12-18 14:34 51°21.498 3°8.364 -999 -999 -999 -999 -999
2008-12-18 14:35 51°21.48 3°8.307 -999 -999 -999 -999 -999
2008-12-18 14:36 51°21.462 3°8.249 -999 -999 -999 -999 -999
2008-12-18 14:37 51°21.444 3°8.192 -999 -999 -999 -999 -999
2008-12-18 14:38 51°21.426 3°8.136 -999 -999 -999 -999 -999
2008-12-18 14:39 51°21.409 3°8.08 -999 -999 -999 -999 -999
2008-12-18 14:40 51°21.391 3°8.023 -999 -999 -999 -999 -999
2008-12-18 14:41 51°21.373 3°7.967 -999 -999 -999 -999 -999
2008-12-18 14:42 51°21.355 3°7.912 -999 -999 -999 -999 -999
2008-12-18 14:43 51°21.365 3°7.862 -999 -999 -999 -999 -999
2008-12-18 14:44 51°21.408 3°7.831 -999 -999 -999 -999 -999
2008-12-18 14:45 51°21.462 3°7.857 -999 -999 -999 -999 -999
2008-12-18 14:46 51°21.497 3°7.946 -999 -999 -999 -999 -999
2008-12-18 14:47 51°21.499 3°8.054 -999 -999 -999 -999 -999
2008-12-18 14:48 51°21.478 3°8.14 -999 -999 -999 -999 -999
2008-12-18 14:49 51°21.455 3°8.198 -999 -999 -999 -999 -999
2008-12-18 14:50 51°21.435 3°8.236 -999 -999 -999 -999 -999
2008-12-18 14:51 51°21.409 3°8.249 -999 -999 -999 -999 -999
2008-12-18 14:52 51°21.35 3°8.115 -999 -999 -999 -999 -999
2008-12-18 14:53 51°21.255 3°7.902 -999 -999 -999 -999 -999
2008-12-18 14:54 51°21.148 3°7.675 -999 -999 -999 -999 -999
2008-12-18 14:55 51°21.041 3°7.446 -999 -999 -999 -999 -999
2008-12-18 14:56 51°20.928 3°7.226 -999 -999 -999 -999 -999
2008-12-18 14:57 51°20.82 3°7.001 -999 -999 -999 -999 -999
2008-12-18 14:58 51°20.718 3°6.771 -999 -999 -999 -999 -999
2008-12-18 14:59 51°20.618 3°6.545 -999 -999 -999 -999 -999
2008-12-18 15:00 51°20.52 3°6.316 -999 -999 -999 -999 -999
2008-12-18 15:01 51°20.421 3°6.087 -999 -999 -999 -999 -999
2008-12-18 15:02 51°20.324 3°5.856 -999 -999 -999 -999 -999
2008-12-18 15:03 51°20.232 3°5.62 -999 -999 -999 -999 -999
2008-12-18 15:04 51°20.128 3°5.397 -999 -999 -999 -999 -999
2008-12-18 15:05 51°20.021 3°5.178 -999 -999 -999 -999 -999
2008-12-18 15:06 51°19.912 3°4.961 -999 -999 -999 -999 -999
2008-12-18 15:07 51°19.802 3°4.746 -999 -999 -999 -999 -999
2008-12-18 15:08 51°19.694 3°4.529 -999 -999 -999 -999 -999
2008-12-18 15:09 51°19.589 3°4.312 -999 -999 -999 -999 -999
2008-12-18 15:10 51°19.488 3°4.093 -999 -999 -999 -999 -999
2008-12-18 15:11 51°19.387 3°3.877 -999 -999 -999 -999 -999
2008-12-18 15:12 51°19.29 3°3.659 -999 -999 -999 -999 -999
2008-12-18 15:13 51°19.196 3°3.436 -999 -999 -999 -999 -999
2008-12-18 15:14 51°19.108 3°3.207 -999 -999 -999 -999 -999
2008-12-18 15:15 51°19.016 3°2.982 -999 -999 -999 -999 -999
2008-12-18 15:16 51°18.923 3°2.758 -999 -999 -999 -999 -999
2008-12-18 15:17 51°18.829 3°2.536 -999 -999 -999 -999 -999
2008-12-18 15:18 51°18.736 3°2.314 -999 -999 -999 -999 -999
2008-12-18 15:19 51°18.643 3°2.094 -999 -999 -999 -999 -999
2008-12-18 15:20 51°18.55 3°1.877 -999 -999 -999 -999 -999
2008-12-18 15:21 51°18.458 3°1.656 -999 -999 -999 -999 -999
2008-12-18 15:22 51°18.364 3°1.431 -999 -999 -999 -999 -999
2008-12-18 15:23 51°18.268 3°1.208 -999 -999 -999 -999 -999
2008-12-18 15:24 51°18.174 3°0.982 -999 -999 -999 -999 -999
2008-12-18 15:25 51°18.078 3°0.757 -999 -999 -999 -999 -999
2008-12-18 15:26 51°17.982 3°0.534 -999 -999 -999 -999 -999
2008-12-18 15:27 51°17.886 3°0.316 -999 -999 -999 -999 -999
2008-12-18 15:28 51°17.785 3°0.105 -999 -999 -999 -999 -999
2008-12-18 15:29 51°17.687 2°59.893 -999 -999 -999 -999 -999
2008-12-18 15:30 51°17.591 2°59.678 -999 -999 -999 -999 -999
2008-12-18 15:31 51°17.497 2°59.462 -999 -999 -999 -999 -999
2008-12-18 15:32 51°17.407 2°59.244 -999 -999 -999 -999 -999
2008-12-18 15:33 51°17.308 2°59.033 -999 -999 -999 -999 -999
2008-12-18 15:34 51°17.202 2°58.83 -999 -999 -999 -999 -999
2008-12-18 15:35 51°17.102 2°58.617 -999 -999 -999 -999 -999
2008-12-18 15:36 51°17.008 2°58.396 -999 -999 -999 -999 -999
2008-12-18 15:37 51°16.913 2°58.173 -999 -999 -999 -999 -999
2008-12-18 15:38 51°16.818 2°57.953 -999 -999 -999 -999 -999
2008-12-18 15:39 51°16.722 2°57.732 -999 -999 -999 -999 -999
2008-12-18 15:40 51°16.624 2°57.503 -999 -999 -999 -999 -999
2008-12-18 15:41 51°16.523 2°57.273 -999 -999 -999 -999 -999
2008-12-18 15:42 51°16.422 2°57.062 -999 -999 -999 -999 -999
2008-12-18 15:43 51°16.33 2°56.841 -999 -999 -999 -999 -999
2008-12-18 15:44 51°16.234 2°56.627 -999 -999 -999 -999 -999
2008-12-18 15:45 51°16.136 2°56.414 -999 -999 -999 -999 -999
2008-12-18 15:46 51°16.04 2°56.197 -999 -999 -999 -999 -999
2008-12-18 15:47 51°15.938 2°55.988 -999 -999 -999 -999 -999
2008-12-18 15:48 51°15.831 2°55.781 -999 -999 -999 -999 -999
2008-12-18 15:49 51°15.717 2°55.589 -999 -999 -999 -999 -999
2008-12-18 15:50 51°15.598 2°55.404 -999 -999 -999 -999 -999
2008-12-18 15:51 51°15.465 2°55.237 -999 -999 -999 -999 -999
2008-12-18 15:52 51°15.309 2°55.125 -999 -999 -999 -999 -999
2008-12-18 15:53 51°15.144 2°55.042 -999 -999 -999 -999 -999
2008-12-18 15:54 51°14.981 2°54.956 -999 -999 -999 -999 -999
2008-12-18 15:55 51°14.822 2°54.868 -999 -999 -999 -999 -999
2008-12-18 15:56 51°14.646 2°54.886 -999 -999 -999 -999 -999
2008-12-18 15:57 51°14.47 2°54.968 -999 -999 -999 -999 -999
2008-12-18 15:58 51°14.322 2°55.171 -999 -999 -999 -999 -999
2008-12-18 15:59 51°14.176 2°55.375 -999 -999 -999 -999 -999